Time;durP1;ratioP1;P1;durP2;ratioP2;P2;SDS_P1;SDS_P2;PMS_P1;PMS_P2;Temp;Humidity;BMP_temperature;BMP_pressure;BME280_temperature;BME280_humidity;BME280_pressure;Samples;Min_cycle;Max_cycle;Signal;HPM_P1;HPM_P2
2023/05/08 00:00:39;;;;;;;10.03;5.27;;;11.30;99.90;;;;;;5056351;28;20037;-44
2023/05/08 00:03:05;;;;;;;8.63;4.68;;;11.30;99.90;;;;;;5056816;28;20048;-44
2023/05/08 00:05:30;;;;;;;9.47;5.27;;;11.30;99.90;;;;;;5056472;28;20102;-43
2023/05/08 00:08:00;;;;;;;8.87;4.63;;;11.20;99.90;;;;;;5056029;28;20476;-44
2023/05/08 00:10:29;;;;;;;8.88;5.20;;;11.20;99.90;;;;;;5056205;28;20041;-44
2023/05/08 00:12:55;;;;;;;9.10;5.15;;;11.20;99.90;;;;;;5056097;28;20400;-44
2023/05/08 00:15:21;;;;;;;9.63;5.50;;;11.10;99.90;;;;;;5056066;28;20049;-43
2023/05/08 00:17:47;;;;;;;10.25;5.90;;;11.10;99.90;;;;;;5056198;28;20504;-43
2023/05/08 00:20:13;;;;;;;8.87;5.20;;;11.10;99.90;;;;;;5055964;28;20041;-44
2023/05/08 00:22:38;;;;;;;8.77;4.97;;;11.00;99.90;;;;;;5055968;28;20045;-43
2023/05/08 00:25:04;;;;;;;9.30;5.50;;;11.00;99.90;;;;;;5055924;28;20045;-44
2023/05/08 00:27:31;;;;;;;11.00;5.32;;;11.00;99.90;;;;;;5055791;28;20052;-43
2023/05/08 00:29:57;;;;;;;9.63;5.38;;;10.90;99.90;;;;;;5055643;28;20140;-44
2023/05/08 00:32:23;;;;;;;8.52;5.15;;;10.90;99.90;;;;;;5055864;28;20127;-43
2023/05/08 00:34:49;;;;;;;8.95;5.10;;;10.90;99.90;;;;;;5055804;28;20163;-43
2023/05/08 00:37:15;;;;;;;9.43;5.53;;;10.90;99.90;;;;;;5055595;28;20488;-43
2023/05/08 00:39:40;;;;;;;8.83;4.93;;;10.80;99.90;;;;;;5055647;28;20047;-43
2023/05/08 00:42:06;;;;;;;9.33;5.17;;;10.80;99.90;;;;;;5055571;28;20045;-43
2023/05/08 00:44:32;;;;;;;10.63;5.70;;;10.80;99.90;;;;;;5054984;28;20049;-44
2023/05/08 00:46:58;;;;;;;10.23;5.65;;;10.80;99.90;;;;;;5054654;28;20048;-43
2023/05/08 00:49:24;;;;;;;8.82;5.15;;;10.80;99.90;;;;;;5055433;28;20124;-43
2023/05/08 00:51:52;;;;;;;;;;;10.70;99.90;;;;;;5055890;28;20049;-44
2023/05/08 00:54:19;;;;;;;9.30;5.25;;;10.70;99.90;;;;;;5055516;28;20427;-44
2023/05/08 00:56:45;;;;;;;10.75;6.05;;;10.70;99.90;;;;;;5055460;28;20049;-44
2023/05/08 00:59:13;;;;;;;10.48;5.25;;;10.60;99.90;;;;;;5055055;28;20123;-44
2023/05/08 01:01:39;;;;;;;9.32;6.03;;;10.60;99.90;;;;;;5055286;28;20072;-44
2023/05/08 01:04:06;;;;;;;10.10;5.90;;;10.60;99.90;;;;;;5055216;28;20452;-43
2023/05/08 01:06:33;;;;;;;9.88;5.30;;;10.60;99.90;;;;;;5055032;28;20052;-43
2023/05/08 01:08:59;;;;;;;9.73;5.70;;;10.50;99.90;;;;;;5055242;28;20061;-43
2023/05/08 01:11:40;;;;;;;9.02;5.35;;;10.50;99.90;;;;;;5054936;28;20191;-43
2023/05/08 01:14:08;;;;;;;10.93;6.18;;;10.50;99.90;;;;;;5055474;28;20044;-44
2023/05/08 01:17:01;;;;;;;9.82;5.53;;;10.50;99.90;;;;;;5054896;28;20056;-44
2023/05/08 01:19:35;;;;;;;9.68;5.80;;;10.50;99.90;;;;;;5055093;28;20049;-43
2023/05/08 01:22:19;;;;;;;10.35;6.07;;;10.40;99.90;;;;;;5054667;28;20128;-43
2023/05/08 01:24:53;;;;;;;9.05;5.25;;;10.40;99.90;;;;;;5054769;28;20136;-45
2023/05/08 01:27:22;;;;;;;11.23;5.97;;;10.40;99.90;;;;;;5054823;28;20110;-45
2023/05/08 01:30:12;;;;;;;10.98;6.05;;;10.40;99.90;;;;;;5054534;28;20080;-45
2023/05/08 01:32:42;;;;;;;11.65;6.35;;;10.30;99.90;;;;;;5053820;28;20049;-43
2023/05/08 01:35:15;;;;;;;10.73;6.25;;;10.30;99.90;;;;;;5054789;28;20056;-43
2023/05/08 01:37:49;;;;;;;11.43;6.03;;;10.30;99.90;;;;;;5054634;28;20088;-43
2023/05/08 01:40:30;;;;;;;8.73;5.32;;;10.20;99.90;;;;;;5054648;28;20081;-43
2023/05/08 01:43:22;;;;;;;10.18;6.00;;;10.20;99.90;;;;;;5054407;28;20056;-44
2023/05/08 01:45:51;;;;;;;10.52;6.15;;;10.20;99.90;;;;;;5053174;28;20136;-43
2023/05/08 01:48:37;;;;;;;11.05;6.03;;;10.20;99.90;;;;;;5054482;28;20055;-43
2023/05/08 01:51:10;;;;;;;10.38;5.72;;;10.10;99.90;;;;;;5054236;28;20471;-43
2023/05/08 01:53:47;;;;;;;10.15;5.70;;;10.10;99.90;;;;;;5054573;28;20045;-43
2023/05/08 01:56:18;;;;;;;10.93;6.07;;;10.10;99.90;;;;;;5053522;28;20055;-43
2023/05/08 01:58:45;;;;;;;10.15;5.70;;;10.10;99.90;;;;;;5054163;28;20182;-43
2023/05/08 02:01:13;;;;;;;10.57;5.80;;;10.00;99.90;;;;;;5053977;28;20484;-43
2023/05/08 02:03:41;;;;;;;11.05;6.35;;;10.00;99.90;;;;;;5054017;28;20503;-43
2023/05/08 02:06:09;;;;;;;9.48;5.38;;;10.00;99.90;;;;;;5054099;28;20059;-44
2023/05/08 02:08:36;;;;;;;9.65;5.50;;;10.00;99.90;;;;;;5053908;28;20049;-44
2023/05/08 02:11:04;;;;;;;10.30;5.78;;;9.90;99.90;;;;;;5053913;28;20075;-44
2023/05/08 02:13:33;;;;;;;11.93;5.70;;;9.90;99.90;;;;;;5054027;28;20048;-43
2023/05/08 02:16:00;;;;;;;11.57;5.90;;;9.90;99.90;;;;;;5053734;28;20136;-43
2023/05/08 02:18:28;;;;;;;9.88;5.47;;;9.80;99.90;;;;;;5052623;28;20040;-44
2023/05/08 02:20:55;;;;;;;11.18;5.78;;;9.80;99.90;;;;;;5053873;28;20049;-44
2023/05/08 02:23:25;;;;;;;10.10;5.65;;;9.80;99.90;;;;;;5052953;28;20135;-44
2023/05/08 02:25:52;;;;;;;11.40;6.25;;;9.80;99.90;;;;;;5053641;28;20088;-43
2023/05/08 02:28:19;;;;;;;10.70;5.65;;;9.80;99.90;;;;;;5053782;28;20072;-43
2023/05/08 02:30:46;;;;;;;9.52;5.47;;;9.80;99.90;;;;;;5053534;28;20055;-44
2023/05/08 02:33:12;;;;;;;;;;;9.80;99.90;;;;;;5053827;28;20049;-43
2023/05/08 02:35:40;;;;;;;10.27;5.60;;;9.80;99.90;;;;;;5053675;28;19967;-43
2023/05/08 02:38:09;;;;;;;11.82;6.10;;;9.70;99.90;;;;;;5053625;28;20045;-43
2023/05/08 02:40:37;;;;;;;11.13;6.22;;;9.70;99.90;;;;;;5053446;28;20068;-44
2023/05/08 02:43:03;;;;;;;11.18;5.90;;;9.70;99.90;;;;;;5053459;28;20056;-43
2023/05/08 02:45:46;;;;;;;11.43;6.22;;;9.70;99.90;;;;;;5053368;28;20045;-44
2023/05/08 02:48:19;;;;;;;10.32;6.03;;;9.70;99.90;;;;;;5053576;28;20059;-43
2023/05/08 02:51:40;;;;;;;11.85;6.20;;;9.60;99.90;;;;;;5053475;28;20041;-43
2023/05/08 02:54:12;;;;;;;11.60;6.32;;;9.60;99.90;;;;;;4977419;28;20624;-43
2023/05/08 02:56:52;;;;;;;10.13;5.47;;;9.60;99.90;;;;;;5039926;28;20068;-43
2023/05/08 02:59:38;;;;;;;10.30;6.10;;;9.60;99.90;;;;;;5053677;28;20132;-43
2023/05/08 03:02:13;;;;;;;8.95;5.97;;;9.50;99.90;;;;;;5053568;28;20396;-43
2023/05/08 03:04:58;;;;;;;11.25;6.07;;;9.50;99.90;;;;;;5053447;28;20091;-43
2023/05/08 03:07:26;;;;;;;9.40;5.25;;;9.50;99.90;;;;;;5055027;28;20048;-43
2023/05/08 03:10:01;;;;;;;11.25;6.03;;;9.50;99.90;;;;;;5057196;28;20059;-43
2023/05/08 03:12:30;;;;;;;10.88;6.10;;;9.50;99.90;;;;;;5057126;28;20481;-43
2023/05/08 03:15:06;;;;;;;10.25;5.55;;;9.50;99.90;;;;;;5057011;28;20568;-43
2023/05/08 03:17:34;;;;;;;10.27;6.05;;;9.40;99.90;;;;;;5057486;28;20049;-44
2023/05/08 03:20:06;;;;;;;11.13;6.30;;;9.40;99.90;;;;;;5039628;28;20049;-43
2023/05/08 03:22:36;;;;;;;10.77;5.45;;;9.40;99.90;;;;;;5057071;28;20049;-43
2023/05/08 03:25:05;;;;;;;10.85;5.82;;;9.40;99.90;;;;;;5056998;28;20041;-43
2023/05/08 03:27:32;;;;;;;9.43;5.28;;;9.40;99.90;;;;;;5057083;28;20084;-43
2023/05/08 03:30:00;;;;;;;9.70;6.05;;;9.30;99.90;;;;;;5056936;28;20117;-44
2023/05/08 03:32:27;;;;;;;10.95;6.10;;;9.30;99.90;;;;;;5057010;28;20052;-44
2023/05/08 03:34:57;;;;;;;11.35;6.30;;;9.30;99.90;;;;;;5056924;28;20068;-43
2023/05/08 03:37:23;;;;;;;10.20;5.85;;;9.30;99.90;;;;;;5056652;28;20476;-43
2023/05/08 03:39:50;;;;;;;11.68;6.57;;;9.30;99.90;;;;;;5056663;28;20052;-45
2023/05/08 03:42:20;;;;;;;10.23;5.82;;;9.20;99.90;;;;;;5056758;28;20053;-44
2023/05/08 03:44:52;;;;;;;9.80;6.20;;;9.20;99.90;;;;;;5056577;28;20504;-44
2023/05/08 03:47:24;;;;;;;9.95;5.82;;;9.20;99.90;;;;;;5056582;28;20487;-44
2023/05/08 03:49:51;;;;;;;9.65;5.63;;;9.20;99.90;;;;;;5056629;28;20088;-44
2023/05/08 03:52:17;;;;;;;;;;;9.20;99.90;;;;;;5056954;28;20045;-44
2023/05/08 03:54:43;;;;;;;11.20;6.55;;;9.10;99.90;;;;;;5056600;28;20386;-43
2023/05/08 03:57:09;;;;;;;12.00;6.35;;;9.10;99.90;;;;;;5056574;28;20049;-43
2023/05/08 03:59:41;;;;;;;12.75;6.85;;;9.10;99.90;;;;;;5056550;28;20079;-44
2023/05/08 04:02:34;;;;;;;11.02;6.47;;;9.10;99.90;;;;;;5056427;28;20071;-43
2023/05/08 04:05:25;;;;;;;10.10;5.78;;;9.10;99.90;;;;;;5056397;28;20488;-43
2023/05/08 04:07:56;;;;;;;11.25;6.38;;;9.10;99.90;;;;;;5056282;28;20467;-44
2023/05/08 04:10:31;;;;;;;10.90;5.93;;;9.10;99.90;;;;;;5056071;28;20049;-43
2023/05/08 04:13:18;;;;;;;10.90;6.45;;;9.10;99.90;;;;;;5056155;28;20053;-43
2023/05/08 04:16:24;;;;;;;9.85;5.68;;;9.10;99.90;;;;;;5056643;28;20419;-43
2023/05/08 04:18:57;;;;;;;10.00;5.35;;;9.10;99.90;;;;;;5054584;28;20055;-43
2023/05/08 04:21:24;;;;;;;11.93;5.95;;;9.10;99.90;;;;;;5055950;28;20092;-43
2023/05/08 04:23:51;;;;;;;10.77;5.63;;;9.10;99.90;;;;;;5056175;28;20064;-43
2023/05/08 04:26:18;;;;;;;12.10;6.00;;;9.10;99.90;;;;;;5055713;28;20516;-43
2023/05/08 04:28:48;;;;;;;10.77;6.60;;;9.10;99.90;;;;;;5056255;28;20131;-43
2023/05/08 04:31:15;;;;;;;10.65;6.13;;;9.20;99.90;;;;;;5055734;28;20049;-43
2023/05/08 04:33:45;;;;;;;9.93;5.78;;;9.20;99.90;;;;;;5055795;28;20045;-43
2023/05/08 04:36:12;;;;;;;10.60;6.35;;;9.20;99.90;;;;;;5055440;28;20135;-44
2023/05/08 04:38:39;;;;;;;9.93;5.63;;;9.20;99.90;;;;;;5055820;28;20123;-44
2023/05/08 04:41:04;;;;;;;9.88;5.57;;;9.30;99.90;;;;;;5055714;28;20045;-43
2023/05/08 04:43:30;;;;;;;9.53;5.37;;;9.20;99.90;;;;;;5055465;28;20496;-43
2023/05/08 04:45:56;;;;;;;10.80;6.10;;;9.30;99.90;;;;;;5055443;28;20060;-43
2023/05/08 04:48:22;;;;;;;11.17;5.67;;;9.30;99.90;;;;;;5054588;28;20049;-46
2023/05/08 04:50:47;;;;;;;9.43;5.90;;;9.30;99.90;;;;;;5055289;28;20044;-44
2023/05/08 04:53:13;;;;;;;10.23;5.67;;;9.40;99.90;;;;;;5055779;28;20397;-43
2023/05/08 04:55:38;;;;;;;11.10;6.00;;;9.40;99.90;;;;;;5055704;28;20097;-43
2023/05/08 04:58:04;;;;;;;10.43;5.93;;;9.50;99.90;;;;;;5055292;28;20048;-45
2023/05/08 05:00:30;;;;;;;10.03;5.87;;;9.60;99.90;;;;;;5054187;28;20507;-43
2023/05/08 05:02:55;;;;;;;11.53;6.33;;;9.60;99.90;;;;;;5054018;28;20404;-43
2023/05/08 05:05:21;;;;;;;10.73;6.17;;;9.70;99.90;;;;;;5054941;28;20511;-43
2023/05/08 05:07:47;;;;;;;10.63;5.87;;;9.70;99.90;;;;;;5055237;28;20061;-43
2023/05/08 05:10:12;;;;;;;9.70;6.23;;;9.80;99.90;;;;;;5055153;28;20399;-43
2023/05/08 05:12:38;;;;;;;11.43;6.53;;;9.90;99.90;;;;;;5054183;28;20515;-44
2023/05/08 05:15:04;;;;;;;14.10;6.10;;;9.90;99.90;;;;;;5055050;28;20049;-43
2023/05/08 05:17:30;;;;;;;11.25;5.97;;;10.00;99.90;;;;;;5054984;28;20057;-45
2023/05/08 05:19:56;;;;;;;11.73;6.53;;;10.10;99.90;;;;;;5054682;28;20041;-43
2023/05/08 05:22:22;;;;;;;10.83;6.27;;;10.20;99.90;;;;;;5055306;28;20044;-44
2023/05/08 05:24:47;;;;;;;10.40;6.15;;;10.30;99.90;;;;;;5054855;28;20288;-43
2023/05/08 05:27:13;;;;;;;10.40;6.13;;;10.40;99.90;;;;;;5054981;28;20044;-43
2023/05/08 05:29:39;;;;;;;11.63;6.37;;;10.50;99.90;;;;;;5054552;28;20497;-44
2023/05/08 05:32:08;;;;;;;10.85;5.85;;;10.50;99.90;;;;;;5054581;28;20048;-43
2023/05/08 05:34:33;;;;;;;9.38;5.55;;;10.60;99.90;;;;;;5054361;28;20049;-44
2023/05/08 05:36:59;;;;;;;11.18;5.93;;;10.70;99.90;;;;;;5055026;28;20055;-44
2023/05/08 05:39:25;;;;;;;11.10;5.80;;;10.70;99.90;;;;;;5054539;28;20064;-44
2023/05/08 05:41:50;;;;;;;9.90;5.67;;;10.80;99.90;;;;;;5054429;28;20053;-43
2023/05/08 05:44:17;;;;;;;10.43;5.97;;;10.90;99.90;;;;;;5054328;28;20056;-44
2023/05/08 05:46:43;;;;;;;11.35;6.40;;;11.20;99.90;;;;;;5054412;28;20287;-44
2023/05/08 05:49:08;;;;;;;9.87;5.40;;;11.70;99.90;;;;;;5054182;28;20187;-43
2023/05/08 05:51:34;;;;;;;10.93;5.73;;;11.90;99.90;;;;;;5054408;28;20392;-43
2023/05/08 05:54:00;;;;;;;11.40;6.30;;;11.80;99.90;;;;;;5054237;28;20130;-45
2023/05/08 05:56:25;;;;;;;10.97;6.10;;;11.90;99.90;;;;;;5054396;28;20045;-44
2023/05/08 05:58:51;;;;;;;10.17;6.10;;;12.20;99.90;;;;;;5054050;28;20045;-43
2023/05/08 06:01:17;;;;;;;9.07;5.83;;;12.90;99.90;;;;;;5053991;28;20044;-46
2023/05/08 06:03:42;;;;;;;9.97;5.93;;;13.90;99.90;;;;;;5054130;28;20040;-43
2023/05/08 06:06:09;;;;;;;9.25;5.55;;;14.70;99.90;;;;;;5054108;28;20131;-43
2023/05/08 06:08:34;;;;;;;8.50;4.65;;;15.40;99.90;;;;;;5053835;28;20044;-43
2023/05/08 06:11:00;;;;;;;8.70;5.03;;;15.90;99.90;;;;;;5053941;28;20049;-43
2023/05/08 06:13:26;;;;;;;9.25;5.20;;;16.30;99.90;;;;;;5053994;28;20048;-43
2023/05/08 06:15:55;;;;;;;9.90;5.50;;;16.70;99.90;;;;;;5053964;28;20098;-43
2023/05/08 06:18:21;;;;;;;8.13;4.82;;;16.90;99.90;;;;;;5053652;28;20056;-43
2023/05/08 06:20:46;;;;;;;8.27;4.80;;;17.00;99.90;;;;;;5053614;28;20045;-43
2023/05/08 06:23:12;;;;;;;8.37;4.80;;;17.40;99.90;;;;;;5053635;28;20055;-43
2023/05/08 06:25:38;;;;;;;7.40;4.47;;;17.80;99.90;;;;;;5053834;28;20045;-43
2023/05/08 06:28:05;;;;;;;8.65;5.15;;;18.10;99.90;;;;;;5053560;28;20132;-43
2023/05/08 06:30:31;;;;;;;8.85;4.60;;;18.30;99.90;;;;;;5036132;28;20052;-43
2023/05/08 06:32:56;;;;;;;7.75;4.53;;;18.30;99.90;;;;;;5052468;28;20102;-44
2023/05/08 06:35:22;;;;;;;8.32;4.70;;;18.10;99.90;;;;;;5053663;28;20435;-43
2023/05/08 06:37:48;;;;;;;7.25;4.25;;;18.20;99.90;;;;;;5053173;28;20067;-43
2023/05/08 06:40:14;;;;;;;7.75;4.55;;;18.10;99.90;;;;;;5052746;28;20476;-43
2023/05/08 06:42:40;;;;;;;7.10;4.50;;;17.80;99.90;;;;;;5053112;28;20047;-43
2023/05/08 06:45:07;;;;;;;8.57;5.07;;;17.40;99.90;;;;;;5053509;28;20341;-43
2023/05/08 06:47:32;;;;;;;8.32;4.80;;;17.00;99.90;;;;;;5053419;28;20088;-43
2023/05/08 06:49:59;;;;;;;8.05;4.97;;;16.40;99.90;;;;;;5053537;28;20033;-45
2023/05/08 06:52:25;;;;;;;8.40;5.05;;;16.00;99.90;;;;;;5053419;28;20076;-43
2023/05/08 06:54:51;;;;;;;9.73;6.03;;;15.60;99.90;;;;;;5053588;28;20076;-43
2023/05/08 06:57:16;;;;;;;7.73;5.07;;;15.30;99.90;;;;;;5053420;28;20086;-43
2023/05/08 06:59:42;;;;;;;10.00;5.47;;;14.90;99.90;;;;;;5053364;28;20350;-43
2023/05/08 07:02:11;;;;;;;8.87;5.17;;;14.70;99.90;;;;;;5053057;28;20049;-43
2023/05/08 07:04:36;;;;;;;8.77;4.90;;;14.50;99.90;;;;;;5053370;28;20284;-43
2023/05/08 07:07:02;;;;;;;9.93;5.10;;;14.30;99.90;;;;;;5052425;28;20067;-43
2023/05/08 07:09:28;;;;;;;8.52;5.10;;;14.10;99.90;;;;;;5053037;28;20291;-43
2023/05/08 07:11:53;;;;;;;9.73;5.17;;;14.00;99.90;;;;;;5053431;28;20051;-44
2023/05/08 07:14:19;;;;;;;9.03;5.47;;;13.90;99.90;;;;;;5053153;28;20334;-43
2023/05/08 07:16:45;;;;;;;11.60;6.57;;;13.70;99.90;;;;;;5053144;28;20047;-44
2023/05/08 07:19:10;;;;;;;9.13;5.07;;;13.70;99.90;;;;;;5053275;28;20055;-43
2023/05/08 07:21:37;;;;;;;10.00;5.30;;;13.60;99.90;;;;;;5053208;28;20041;-43
2023/05/08 07:24:03;;;;;;;;;;;13.50;99.90;;;;;;5053777;28;20099;-43
2023/05/08 07:26:28;;;;;;;9.20;5.50;;;13.50;99.90;;;;;;5053127;28;20327;-43
2023/05/08 07:28:54;;;;;;;9.90;5.03;;;13.40;99.90;;;;;;5051973;28;20048;-43
2023/05/08 07:31:20;;;;;;;11.43;6.20;;;13.40;99.90;;;;;;5052813;28;20045;-44
2023/05/08 07:33:46;;;;;;;8.55;5.03;;;13.40;99.90;;;;;;5053182;28;20276;-43
2023/05/08 07:36:12;;;;;;;10.33;6.10;;;13.30;99.90;;;;;;5053178;28;20480;-43
2023/05/08 07:38:38;;;;;;;12.05;6.05;;;13.30;99.90;;;;;;5053115;28;20049;-43
2023/05/08 07:41:04;;;;;;;11.63;6.97;;;13.30;99.90;;;;;;5053089;28;20067;-43
2023/05/08 07:43:30;;;;;;;11.50;6.38;;;13.30;99.90;;;;;;5053046;28;20132;-43
2023/05/08 07:45:56;;;;;;;;;;;13.30;99.90;;;;;;5053320;28;20045;-43
2023/05/08 07:48:22;;;;;;;10.07;5.85;;;13.20;99.90;;;;;;5051843;28;19920;-44
2023/05/08 07:50:51;;;;;;;11.15;6.47;;;13.20;99.90;;;;;;5053161;28;20057;-44
2023/05/08 07:53:16;;;;;;;10.82;6.10;;;13.30;99.90;;;;;;5052934;28;20045;-44
2023/05/08 07:55:42;;;;;;;11.70;6.55;;;13.30;99.90;;;;;;5055818;28;20048;-44
2023/05/08 07:58:08;;;;;;;11.35;6.50;;;13.30;99.90;;;;;;5056605;28;20387;-44
2023/05/08 08:00:34;;;;;;;11.32;6.63;;;13.30;99.90;;;;;;5056298;28;20476;-43
2023/05/08 08:03:00;;;;;;;10.10;5.95;;;13.30;99.90;;;;;;5056458;28;20076;-43
2023/05/08 08:05:25;;;;;;;10.30;6.33;;;13.40;99.90;;;;;;5055585;28;20131;-45
2023/05/08 08:07:51;;;;;;;12.13;6.17;;;13.40;99.90;;;;;;5055501;28;20080;-44
2023/05/08 08:10:17;;;;;;;12.03;6.23;;;13.40;99.90;;;;;;5056311;28;20049;-44
2023/05/08 08:12:42;;;;;;;10.13;6.20;;;13.50;99.90;;;;;;5056291;28;20639;-44
2023/05/08 08:15:09;;;;;;;11.93;6.40;;;13.50;99.90;;;;;;5054940;28;20307;-44
2023/05/08 08:17:35;;;;;;;12.90;6.47;;;13.60;99.90;;;;;;5056235;28;20060;-45
2023/05/08 08:20:01;;;;;;;10.25;5.88;;;13.60;99.90;;;;;;5056140;28;20041;-46
2023/05/08 08:22:27;;;;;;;12.35;6.53;;;13.70;99.90;;;;;;5056125;28;20048;-44
2023/05/08 08:24:54;;;;;;;11.07;6.60;;;13.80;99.90;;;;;;5055169;28;20476;-45
2023/05/08 08:27:20;;;;;;;9.85;5.85;;;13.80;99.90;;;;;;5055704;28;20148;-44
2023/05/08 08:29:46;;;;;;;10.60;6.15;;;13.80;99.90;;;;;;5055803;28;20092;-45
2023/05/08 08:32:11;;;;;;;9.57;5.70;;;13.80;99.90;;;;;;5055896;28;20124;-44
2023/05/08 08:34:37;;;;;;;10.83;6.37;;;13.90;99.90;;;;;;5054494;28;20290;-44
2023/05/08 08:37:06;;;;;;;10.93;6.30;;;13.90;99.90;;;;;;5055801;28;20302;-44
2023/05/08 08:39:33;;;;;;;10.70;6.15;;;14.00;99.90;;;;;;5054350;28;20044;-43
2023/05/08 08:41:59;;;;;;;11.70;6.13;;;14.00;99.90;;;;;;5055563;28;20037;-43
2023/05/08 08:44:25;;;;;;;10.77;6.07;;;14.00;99.90;;;;;;5054393;28;20504;-44
2023/05/08 08:46:51;;;;;;;10.13;5.72;;;14.10;99.90;;;;;;5055564;28;20059;-44
2023/05/08 08:49:28;;;;;;;11.27;6.65;;;14.10;99.90;;;;;;5054619;28;20087;-44
2023/05/08 08:51:58;;;;;;;11.18;6.00;;;14.20;99.90;;;;;;5054502;28;20041;-43
2023/05/08 08:54:28;;;;;;;11.23;6.30;;;14.20;99.90;;;;;;5055470;28;20051;-43
2023/05/08 08:56:55;;;;;;;12.13;6.82;;;14.20;99.90;;;;;;5055145;28;20182;-45
2023/05/08 08:59:24;;;;;;;10.40;6.05;;;14.30;99.90;;;;;;5054342;28;20052;-43
2023/05/08 09:01:55;;;;;;;11.75;6.85;;;14.30;99.90;;;;;;5055482;28;20049;-44
2023/05/08 09:04:20;;;;;;;12.25;6.72;;;14.40;99.90;;;;;;5055206;28;20570;-43
2023/05/08 09:06:49;;;;;;;12.30;6.93;;;14.40;99.90;;;;;;5053569;28;20041;-43
2023/05/08 09:09:15;;;;;;;11.20;5.57;;;14.50;99.90;;;;;;5054973;28;20295;-44
2023/05/08 09:11:42;;;;;;;10.70;6.13;;;14.50;99.90;;;;;;5055176;28;20463;-43
2023/05/08 09:14:08;;;;;;;11.80;6.30;;;14.50;99.90;;;;;;5055087;28;20041;-43
2023/05/08 09:16:34;;;;;;;12.13;6.68;;;14.60;99.90;;;;;;5055134;28;20060;-43
2023/05/08 09:19:02;;;;;;;11.10;7.05;;;14.60;99.90;;;;;;5054832;28;20053;-43
2023/05/08 09:21:27;;;;;;;10.23;6.05;;;14.60;99.90;;;;;;5053996;28;20392;-43
2023/05/08 09:24:04;;;;;;;11.80;6.82;;;14.70;99.90;;;;;;5054852;28;20049;-43
2023/05/08 09:26:33;;;;;;;11.43;6.63;;;14.80;99.90;;;;;;5055082;28;20142;-43
2023/05/08 09:29:12;;;;;;;11.80;7.35;;;14.90;99.90;;;;;;5054822;28;20071;-44
2023/05/08 09:31:39;;;;;;;11.38;6.72;;;14.90;99.90;;;;;;5054868;28;20045;-45
2023/05/08 09:34:10;;;;;;;11.90;6.63;;;15.00;99.90;;;;;;5054516;28;20052;-43
2023/05/08 09:36:37;;;;;;;11.38;7.30;;;15.10;99.90;;;;;;5054554;28;20407;-44
2023/05/08 09:39:03;;;;;;;12.38;7.03;;;15.10;99.90;;;;;;5054641;28;20044;-43
2023/05/08 09:41:29;;;;;;;11.95;6.43;;;15.20;99.90;;;;;;5054589;28;20506;-43
2023/05/08 09:44:01;;;;;;;12.57;7.32;;;15.30;99.90;;;;;;5054529;28;20049;-43
2023/05/08 09:46:26;;;;;;;12.20;7.43;;;15.40;99.90;;;;;;5054600;28;20403;-44
2023/05/08 09:48:57;;;;;;;12.57;7.43;;;15.60;99.90;;;;;;5054405;28;20045;-44
2023/05/08 09:51:24;;;;;;;13.20;7.00;;;15.70;99.90;;;;;;5054670;28;20037;-44
2023/05/08 09:53:55;;;;;;;11.18;6.80;;;15.90;99.90;;;;;;5054522;28;20048;-44
2023/05/08 09:56:30;;;;;;;12.48;7.28;;;16.00;99.90;;;;;;5053175;28;20136;-43
2023/05/08 09:58:55;;;;;;;11.15;6.43;;;16.10;99.90;;;;;;5054256;28;20136;-44
2023/05/08 10:01:39;;;;;;;12.32;7.47;;;16.20;99.90;;;;;;5054214;28;20124;-44
2023/05/08 10:04:05;;;;;;;10.45;6.55;;;16.30;99.90;;;;;;5054389;28;20120;-44
2023/05/08 10:06:31;;;;;;;11.35;7.05;;;16.40;99.90;;;;;;5054378;28;20136;-45
2023/05/08 10:09:26;;;;;;;11.98;7.63;;;16.50;99.90;;;;;;5053303;28;20052;-43
2023/05/08 10:11:54;;;;;;;12.63;7.43;;;16.60;99.90;;;;;;5048666;28;20049;-44
2023/05/08 10:14:23;;;;;;;12.70;7.80;;;16.70;99.90;;;;;;5053964;28;20080;-44
2023/05/08 10:16:51;;;;;;;13.20;7.53;;;16.80;99.90;;;;;;5053708;28;20071;-43
2023/05/08 10:19:22;;;;;;;12.30;7.53;;;16.80;99.90;;;;;;5053689;28;20488;-43
2023/05/08 10:21:50;;;;;;;11.90;7.00;;;16.90;99.90;;;;;;5052767;28;20080;-44
2023/05/08 10:24:26;;;;;;;12.90;7.93;;;17.00;99.90;;;;;;5053764;28;20115;-44
2023/05/08 10:27:11;;;;;;;15.23;8.20;;;17.10;99.90;;;;;;5053844;28;20049;-44
2023/05/08 10:30:00;;;;;;;11.98;6.93;;;17.20;99.90;;;;;;5053654;28;20128;-43
2023/05/08 10:32:30;;;;;;;13.00;6.78;;;17.20;99.90;;;;;;5053605;28;20102;-43
2023/05/08 10:34:58;;;;;;;11.65;7.13;;;17.40;99.90;;;;;;5053261;28;20136;-43
2023/05/08 10:37:26;;;;;;;12.05;7.10;;;17.50;99.90;;;;;;5053589;28;20106;-43
2023/05/08 10:39:54;;;;;;;12.88;7.28;;;17.60;99.90;;;;;;5053529;28;20056;-43
2023/05/08 10:42:21;;;;;;;13.45;7.70;;;17.80;99.90;;;;;;5053559;28;20053;-43
2023/05/08 10:44:47;;;;;;;12.80;7.97;;;17.90;99.90;;;;;;5053666;28;20044;-43
2023/05/08 10:47:41;;;;;;;13.48;8.45;;;18.00;99.90;;;;;;5053600;28;20056;-44
2023/05/08 10:50:25;;;;;;;12.02;7.30;;;18.00;99.90;;;;;;5053488;28;20045;-43
2023/05/08 10:53:08;;;;;;;13.20;7.75;;;18.10;99.90;;;;;;5053340;28;20088;-44
2023/05/08 10:55:36;;;;;;;12.40;7.63;;;18.20;99.90;;;;;;5053363;28;20049;-43
2023/05/08 10:58:12;;;;;;;12.30;7.40;;;18.30;99.90;;;;;;5053549;28;20048;-43
2023/05/08 11:00:52;;;;;;;12.98;7.80;;;18.40;99.90;;;;;;5053572;28;20060;-43
2023/05/08 11:03:31;;;;;;;12.73;7.57;;;18.50;99.90;;;;;;5053357;28;20048;-44
2023/05/08 11:05:57;;;;;;;13.27;7.80;;;18.60;99.90;;;;;;5053433;28;20207;-44
2023/05/08 11:08:28;;;;;;;12.45;7.78;;;18.80;99.90;;;;;;5051919;28;20432;-44
2023/05/08 11:11:03;;;;;;;12.98;7.78;;;18.90;99.90;;;;;;5052948;28;20075;-44
2023/05/08 11:13:46;;;;;;;12.40;7.90;;;19.00;99.90;;;;;;5053673;28;20132;-47
2023/05/08 11:16:11;;;;;;;13.27;8.00;;;19.20;99.90;;;;;;5053362;28;20045;-43
2023/05/08 11:18:57;;;;;;;13.43;8.23;;;19.20;99.90;;;;;;5053116;28;20052;-43
2023/05/08 11:21:23;;;;;;;13.30;7.65;;;19.30;99.90;;;;;;5053395;28;20037;-44
2023/05/08 11:23:57;;;;;;;12.20;7.88;;;19.40;99.90;;;;;;5052310;28;20552;-45
2023/05/08 11:26:39;;;;;;;12.40;7.80;;;19.50;99.90;;;;;;5053534;28;20044;-45
2023/05/08 11:29:15;;;;;;;14.90;8.02;;;19.60;99.90;;;;;;5055387;28;20045;-43
2023/05/08 11:31:51;;;;;;;13.80;8.15;;;19.70;99.90;;;;;;5057631;28;20426;-44
2023/05/08 11:34:41;;;;;;;12.23;7.63;;;19.80;99.90;;;;;;5056985;28;20098;-43
2023/05/08 11:37:18;;;;;;;13.15;7.88;;;19.90;99.90;;;;;;5039167;28;20053;-45
2023/05/08 11:39:44;;;;;;;13.63;8.30;;;20.00;99.90;;;;;;5057029;28;20064;-44
2023/05/08 11:42:28;;;;;;;;;;;20.10;99.90;;;;;;5057334;28;20060;-44
2023/05/08 11:45:08;;;;;;;12.80;8.00;;;20.10;99.90;;;;;;5055534;28;19976;-44
2023/05/08 11:47:44;;;;;;;13.25;8.40;;;20.20;99.90;;;;;;5055783;28;20502;-44
2023/05/08 11:50:11;;;;;;;12.52;7.93;;;20.20;99.90;;;;;;5055425;28;20446;-44
2023/05/08 11:52:39;;;;;;;13.00;8.27;;;20.20;99.90;;;;;;5056663;28;20041;-44
2023/05/08 11:55:08;;;;;;;16.25;9.32;;;20.20;99.90;;;;;;5056702;28;20080;-44
2023/05/08 11:57:34;;;;;;;16.23;8.43;;;20.20;99.90;;;;;;5056689;28;20049;-45
2023/05/08 12:00:05;;;;;;;12.30;7.32;;;20.30;99.90;;;;;;5056483;28;20588;-43
2023/05/08 12:02:42;;;;;;;14.38;8.60;;;20.40;99.90;;;;;;5056477;28;20084;-44
2023/05/08 12:05:09;;;;;;;13.93;8.52;;;20.50;99.90;;;;;;5056798;28;20052;-44
2023/05/08 12:07:47;;;;;;;14.68;8.48;;;20.60;99.90;;;;;;5056599;28;20132;-44
2023/05/08 12:10:13;;;;;;;13.80;8.43;;;20.70;99.90;;;;;;5056055;28;20056;-44
2023/05/08 12:12:41;;;;;;;13.82;8.48;;;20.80;99.90;;;;;;5056080;28;20114;-44
2023/05/08 12:15:11;;;;;;;13.30;7.38;;;20.80;99.90;;;;;;5055188;28;20057;-44
2023/05/08 12:17:38;;;;;;;14.48;8.18;;;20.90;99.90;;;;;;5055165;28;20445;-44
2023/05/08 12:20:14;;;;;;;13.13;8.10;;;21.00;99.90;;;;;;5056139;28;20123;-43
2023/05/08 12:22:42;;;;;;;12.63;7.82;;;21.00;99.90;;;;;;5056272;28;20060;-44
2023/05/08 12:25:09;;;;;;;14.10;7.75;;;21.10;99.90;;;;;;5055895;28;20052;-44
2023/05/08 12:27:36;;;;;;;12.38;8.07;;;21.10;99.90;;;;;;5038226;28;20053;-44
2023/05/08 12:30:07;;;;;;;13.02;7.80;;;21.20;99.90;;;;;;5054869;28;20045;-44
2023/05/08 12:32:35;;;;;;;15.38;9.32;;;21.30;99.90;;;;;;5055920;28;20053;-44
2023/05/08 12:35:01;;;;;;;15.35;8.35;;;21.40;99.90;;;;;;5055809;28;20044;-44
2023/05/08 12:37:27;;;;;;;;;;;21.40;99.90;;;;;;5056178;28;20183;-43
2023/05/08 12:39:53;;;;;;;12.38;7.63;;;21.40;99.90;;;;;;5054745;28;19962;-43
2023/05/08 12:42:20;;;;;;;14.50;8.38;;;21.40;99.90;;;;;;5055766;28;20060;-44
2023/05/08 12:44:49;;;;;;;;;;;21.40;99.90;;;;;;5055023;28;20057;-44
2023/05/08 12:47:17;;;;;;;15.55;8.93;;;21.50;99.90;;;;;;5071407;28;19921;-44
2023/05/08 12:49:42;;;;;;;14.80;9.13;;;21.60;99.90;;;;;;5055622;28;20064;-44
2023/05/08 12:52:12;;;;;;;14.27;8.30;;;21.60;99.90;;;;;;5055514;28;20049;-43
2023/05/08 12:54:40;;;;;;;12.73;8.32;;;21.60;99.90;;;;;;5055285;28;20045;-44